Time;durP1;ratioP1;P1;durP2;ratioP2;P2;SDS_P1;SDS_P2;PMS_P1;PMS_P2;Temp;Humidity;BMP_temperature;BMP_pressure;BME280_temperature;BME280_humidity;BME280_pressure;Samples;Min_cycle;Max_cycle;Signal;HPM_P1;HPM_P2
2022/05/26 00:02:22;;;;;;;1.20;0.63;;;;;;;18.09;61.43;100554.03;5010550;28;20026;-69
2022/05/26 00:04:47;;;;;;;1.27;0.68;;;;;;;18.10;61.53;100551.25;5010772;28;20022;-68
2022/05/26 00:07:13;;;;;;;1.60;0.70;;;;;;;18.10;62.13;100553.09;5010464;28;20033;-69
2022/05/26 00:09:38;;;;;;;2.78;0.88;;;;;;;18.14;61.12;100552.81;5011507;28;20101;-68
2022/05/26 00:12:06;;;;;;;2.53;0.60;;;;;;;18.13;61.27;100556.50;5011621;28;20030;-68
2022/05/26 00:14:32;;;;;;;3.75;0.70;;;;;;;18.15;61.62;100565.31;5014027;28;20048;-68
2022/05/26 00:16:58;;;;;;;1.30;0.60;;;;;;;18.17;61.11;100560.72;4996617;28;20038;-69
2022/05/26 00:19:24;;;;;;;1.20;0.50;;;;;;;18.16;61.41;100560.81;5013584;28;20191;-68
2022/05/26 00:21:49;;;;;;;0.95;0.60;;;;;;;18.12;61.58;100562.81;5014149;28;20055;-68
2022/05/26 00:24:19;;;;;;;1.33;0.63;;;;;;;18.10;62.58;100559.31;5014245;28;20046;-68
2022/05/26 00:26:46;;;;;;;0.88;0.70;;;;;;;18.05;63.71;100566.81;5013948;28;20025;-68
2022/05/26 00:29:11;;;;;;;1.58;0.68;;;;;;;18.07;64.61;100569.41;5013738;28;20040;-68
2022/05/26 00:31:37;;;;;;;2.40;0.80;;;;;;;18.07;64.43;100570.25;5013967;28;20104;-68
2022/05/26 00:34:03;;;;;;;1.25;0.80;;;;;;;18.02;64.02;100561.56;5014368;28;20469;-68
2022/05/26 00:36:37;;;;;;;2.90;0.80;;;;;;;18.01;64.88;100567.91;5010524;28;20030;-68
2022/05/26 00:39:15;;;;;;;1.60;0.90;;;;;;;18.03;64.91;100566.00;4993852;28;20035;-68
2022/05/26 00:41:47;;;;;;;4.65;1.00;;;;;;;18.00;65.87;100574.25;4994216;28;20110;-68
2022/05/26 00:44:13;;;;;;;1.85;0.70;;;;;;;18.00;65.86;100562.63;4994560;28;20062;-68
2022/05/26 00:46:51;;;;;;;2.35;0.90;;;;;;;17.94;65.98;100566.50;4993623;28;20030;-68
2022/05/26 00:49:28;;;;;;;5.75;0.93;;;;;;;17.96;65.83;100569.97;5006754;28;20034;-68
2022/05/26 00:51:55;;;;;;;1.77;0.80;;;;;;;17.98;66.25;100578.84;5013870;28;20026;-67
2022/05/26 00:54:23;;;;;;;1.63;0.80;;;;;;;17.94;66.20;100574.56;5013358;28;20101;-67
2022/05/26 00:56:55;;;;;;;2.55;0.77;;;;;;;17.92;66.64;100571.09;4995348;28;20509;-67
2022/05/26 00:59:47;;;;;;;5.60;1.08;;;;;;;17.93;67.02;100574.66;5013488;28;20447;-68
2022/05/26 01:02:15;;;;;;;3.78;1.00;;;;;;;17.92;66.46;100571.09;5013659;28;20037;-68
2022/05/26 01:04:50;;;;;;;1.77;0.85;;;;;;;17.82;66.33;100567.19;5012331;28;20489;-68
2022/05/26 01:07:33;;;;;;;6.72;1.25;;;;;;;17.91;66.57;100569.34;5013124;28;20022;-68
2022/05/26 01:09:59;;;;;;;2.45;1.17;;;;;;;17.85;66.36;100574.19;5013677;28;20037;-67
2022/05/26 01:12:25;;;;;;;2.95;0.90;;;;;;;17.86;66.53;100574.13;5012596;28;20038;-67
2022/05/26 01:14:57;;;;;;;1.08;0.77;;;;;;;17.71;66.66;100566.00;5013042;28;20021;-67
2022/05/26 01:17:50;;;;;;;1.85;0.75;;;;;;;17.85;67.10;100568.81;5011297;28;20030;-67
2022/05/26 01:20:37;;;;;;;1.35;0.75;;;;;;;17.84;67.30;100567.94;4985570;28;20091;-67
2022/05/26 01:23:20;;;;;;;1.45;0.80;;;;;;;17.86;68.33;100566.03;5012034;28;20030;-67
2022/05/26 01:25:54;;;;;;;2.30;1.00;;;;;;;17.81;67.46;100564.53;5011878;28;20441;-67
2022/05/26 01:28:38;;;;;;;3.20;0.80;;;;;;;17.67;67.81;100559.91;5011552;28;20701;-67
2022/05/26 01:31:28;;;;;;;2.33;0.75;;;;;;;17.60;67.88;100563.88;5011832;28;20034;-67
2022/05/26 01:34:02;;;;;;;1.88;0.75;;;;;;;17.66;68.48;100557.31;5012290;28;20100;-68
2022/05/26 01:36:40;;;;;;;1.33;0.65;;;;;;;17.68;67.85;100561.63;5009899;28;20137;-68
2022/05/26 01:39:21;;;;;;;0.60;0.60;;;;;;;17.53;68.25;100550.84;4993460;28;20037;-68
2022/05/26 01:41:58;;;;;;;2.45;0.90;;;;;;;17.66;67.80;100560.00;4993400;28;20071;-68
2022/05/26 01:45:03;;;;;;;1.10;0.85;;;;;;;17.66;67.64;100560.84;4991545;28;20022;-70
2022/05/26 01:47:50;;;;;;;3.35;1.40;;;;;;;17.64;68.42;100564.59;4990858;28;20020;-68
2022/05/26 01:50:25;;;;;;;1.40;0.65;;;;;;;17.55;68.22;100565.03;4991032;28;20042;-68
2022/05/26 01:53:16;;;;;;;1.10;0.80;;;;;;;17.54;68.77;100566.88;5010012;28;20021;-68
2022/05/26 01:55:57;;;;;;;1.73;1.02;;;;;;;17.47;69.16;100573.53;5010579;28;20034;-68
2022/05/26 01:59:24;;;;;;;1.27;0.93;;;;;;;17.39;69.10;100567.66;5011297;28;20022;-68
2022/05/26 02:01:55;;;;;;;2.75;0.77;;;;;;;17.29;69.65;100563.69;4925088;29;20407;-68
2022/05/26 02:04:27;;;;;;;1.05;0.85;;;;;;;17.34;69.86;100575.09;5010175;28;20014;-68
2022/05/26 02:07:06;;;;;;;2.22;0.93;;;;;;;17.09;70.29;100543.19;5010120;28;20026;-68
2022/05/26 02:09:41;;;;;;;5.10;1.17;;;;;;;17.26;70.46;100574.59;5010737;28;20705;-68
2022/05/26 02:12:16;;;;;;;3.58;0.88;;;;;;;17.28;70.57;100577.22;5010185;28;20127;-67
2022/05/26 02:14:52;;;;;;;1.88;0.80;;;;;;;17.18;70.99;100563.38;5009295;28;20069;-67
2022/05/26 02:17:25;;;;;;;1.73;0.80;;;;;;;17.29;70.66;100585.19;5010783;28;20123;-67
2022/05/26 02:19:54;;;;;;;1.38;0.80;;;;;;;17.20;70.04;100580.28;5011186;28;20558;-67
2022/05/26 02:22:24;;;;;;;1.25;0.80;;;;;;;17.20;70.53;100576.75;5011003;28;20022;-68
2022/05/26 02:25:19;;;;;;;2.67;1.85;;;;;;;17.22;71.17;100577.50;5011370;28;20553;-68
2022/05/26 02:27:51;;;;;;;1.65;0.85;;;;;;;17.20;71.00;100582.97;5009011;28;20037;-68
2022/05/26 02:30:17;;;;;;;1.33;0.70;;;;;;;17.22;71.15;100583.75;5012142;28;20022;-68
2022/05/26 02:32:49;;;;;;;0.82;0.70;;;;;;;17.20;70.85;100582.97;4994131;28;20385;-68
2022/05/26 02:35:16;;;;;;;4.70;0.98;;;;;;;17.15;70.76;100576.94;5011520;28;20041;-68
2022/05/26 02:37:45;;;;;;;7.13;1.20;;;;;;;17.09;70.69;100567.41;4998107;28;20081;-68
2022/05/26 02:40:11;;;;;;;5.57;1.20;;;;;;;17.08;70.97;100572.84;5000537;28;20100;-68
2022/05/26 02:42:43;;;;;;;2.20;0.70;;;;;;;17.03;71.20;100585.66;5010462;28;20034;-68
2022/05/26 02:45:09;;;;;;;1.98;0.80;;;;;;;17.00;71.70;100586.66;5010792;28;20408;-68
2022/05/26 02:48:02;;;;;;;1.75;0.70;;;;;;;16.91;71.75;100589.81;5010542;28;20520;-68
2022/05/26 02:50:30;;;;;;;1.48;0.75;;;;;;;16.89;72.26;100596.19;5000671;28;20125;-68
2022/05/26 02:53:12;;;;;;;7.47;1.10;;;;;;;16.90;72.60;100592.56;5010542;28;20037;-68
2022/05/26 02:55:43;;;;;;;1.13;0.80;;;;;;;16.96;71.93;100594.94;5011263;28;20527;-69
2022/05/26 02:58:57;;;;;;;1.30;0.85;;;;;;;16.86;72.83;100596.34;5011137;28;20452;-69
2022/05/26 03:01:36;;;;;;;1.42;0.70;;;;;;;16.77;73.00;100594.13;4915167;29;20488;-69
2022/05/26 03:04:16;;;;;;;2.67;0.70;;;;;;;16.70;73.57;100585.50;4931650;29;20035;-69
2022/05/26 03:06:50;;;;;;;2.00;0.90;;;;;;;16.71;73.70;100602.47;4988656;28;20129;-69
2022/05/26 03:09:17;;;;;;;2.63;1.00;;;;;;;16.54;74.72;100597.03;5011216;28;20064;-69
2022/05/26 03:11:47;;;;;;;1.60;0.80;;;;;;;16.55;74.28;100596.97;5011240;28;20382;-69
2022/05/26 03:14:17;;;;;;;1.00;0.88;;;;;;;16.50;75.10;100599.00;5009318;28;20028;-69
2022/05/26 03:16:43;;;;;;;5.50;1.00;;;;;;;16.46;75.02;100597.41;5008876;28;20026;-69
2022/05/26 03:19:09;;;;;;;1.48;0.90;;;;;;;16.42;74.76;100602.94;5008676;28;20382;-69
2022/05/26 03:21:35;;;;;;;2.97;0.93;;;;;;;16.26;75.76;100591.19;5009249;28;20033;-69
2022/05/26 03:24:00;;;;;;;0.82;0.70;;;;;;;16.27;75.30;100607.22;5008972;28;20061;-69
2022/05/26 03:26:26;;;;;;;4.93;1.33;;;;;;;16.20;76.36;100604.88;4990880;28;20022;-69
2022/05/26 03:28:51;;;;;;;2.03;1.05;;;;;;;16.13;76.51;100604.28;5010093;28;20520;-69
2022/05/26 03:31:17;;;;;;;4.65;1.23;;;;;;;16.07;77.25;100595.66;5011041;28;20469;-69
2022/05/26 03:41:54;;;;;;;2.88;0.73;;;;;;;16.09;77.39;100609.88;4991457;28;20501;-69
2022/05/26 03:44:21;;;;;;;2.15;0.85;;;;;;;15.97;76.86;100600.56;5003973;28;20025;-69
2022/05/26 03:46:48;;;;;;;10.60;1.90;;;;;;;15.93;77.24;100595.44;4993290;28;20038;-69
2022/05/26 03:49:14;;;;;;;3.17;0.88;;;;;;;15.96;78.04;100606.00;5010924;28;20032;-69
2022/05/26 03:51:39;;;;;;;4.75;1.50;;;;;;;15.96;78.54;100603.31;5010448;28;20026;-69
2022/05/26 03:54:05;;;;;;;1.85;1.10;;;;;;;15.89;78.49;100609.91;5010504;28;20026;-69
2022/05/26 03:56:31;;;;;;;2.38;0.93;;;;;;;15.92;78.73;100615.13;5009728;28;20026;-69
2022/05/26 03:58:56;;;;;;;1.45;1.00;;;;;;;15.87;78.26;100614.47;5010894;28;20361;-69
2022/05/26 04:01:22;;;;;;;3.53;1.30;;;;;;;15.96;77.82;100616.75;5009909;28;20113;-69
2022/05/26 04:03:48;;;;;;;2.35;0.93;;;;;;;15.98;78.69;100622.91;5010740;28;20531;-69
2022/05/26 04:06:15;;;;;;;1.65;0.90;;;;;;;16.09;78.37;100626.88;4993203;28;20113;-69
2022/05/26 04:08:40;;;;;;;2.30;0.93;;;;;;;16.03;77.58;100624.44;5009038;28;20485;-69
2022/05/26 04:11:06;;;;;;;2.67;1.73;;;;;;;16.11;77.11;100629.47;5006833;28;20026;-69
2022/05/26 04:13:31;;;;;;;3.08;1.05;;;;;;;16.16;77.83;100628.31;4990455;28;20022;-69
2022/05/26 04:15:57;;;;;;;1.58;1.02;;;;;;;16.22;78.06;100629.84;5008712;28;20029;-69
2022/05/26 04:18:22;;;;;;;1.52;0.95;;;;;;;16.18;77.50;100628.22;5008546;28;20104;-69
2022/05/26 04:20:48;;;;;;;2.80;1.00;;;;;;;16.23;78.00;100632.47;5008877;28;20025;-69
2022/05/26 04:23:13;;;;;;;3.15;0.90;;;;;;;16.39;77.71;100638.00;5009685;28;20026;-69
2022/05/26 04:25:38;;;;;;;1.33;1.00;;;;;;;16.44;76.52;100644.88;5010489;28;20034;-69
2022/05/26 04:28:04;;;;;;;4.78;1.33;;;;;;;16.39;76.48;100635.31;5009573;28;20090;-68
2022/05/26 04:30:30;;;;;;;2.22;1.10;;;;;;;16.38;76.75;100642.50;5009631;28;20037;-68
2022/05/26 04:32:56;;;;;;;1.33;1.10;;;;;;;16.35;77.37;100641.75;4992384;28;20367;-68
2022/05/26 04:35:21;;;;;;;2.70;1.23;;;;;;;16.26;77.13;100628.78;5010230;28;20099;-68
2022/05/26 04:37:48;;;;;;;2.13;1.20;;;;;;;16.37;76.45;100639.88;4997055;28;20030;-68
2022/05/26 04:40:13;;;;;;;2.90;1.13;;;;;;;16.40;76.81;100643.31;4993233;28;20026;-68
2022/05/26 04:42:40;;;;;;;2.42;1.02;;;;;;;16.49;76.93;100650.09;4994800;28;20037;-68
2022/05/26 04:45:07;;;;;;;1.42;0.93;;;;;;;16.54;76.83;100658.81;4993437;28;20078;-68
2022/05/26 04:47:33;;;;;;;0.98;0.85;;;;;;;16.55;75.74;100656.06;4993818;28;20030;-68
2022/05/26 04:49:58;;;;;;;3.40;1.10;;;;;;;16.54;75.42;100653.44;4994002;28;20030;-68
2022/05/26 04:52:25;;;;;;;2.33;0.85;;;;;;;16.60;75.55;100669.25;4992839;28;20112;-68
2022/05/26 04:54:54;;;;;;;0.80;0.70;;;;;;;16.65;76.22;100661.88;4993978;28;20034;-68
2022/05/26 04:57:22;;;;;;;0.88;0.82;;;;;;;16.64;75.58;100665.47;4994128;28;20037;-68
2022/05/26 04:59:48;;;;;;;1.42;0.95;;;;;;;16.67;75.18;100666.22;4992826;28;20033;-69
2022/05/26 05:02:15;;;;;;;1.23;0.90;;;;;;;16.76;75.15;100670.28;4993978;28;20035;-69
2022/05/26 05:04:44;;;;;;;4.10;1.35;;;;;;;16.87;74.62;100674.19;4992886;28;20022;-68
2022/05/26 05:07:09;;;;;;;1.83;0.90;;;;;;;16.99;73.55;100662.00;4993469;28;20053;-68
2022/05/26 05:09:37;;;;;;;1.60;0.88;;;;;;;17.18;72.80;100668.22;4993937;28;20026;-68
2022/05/26 05:12:03;;;;;;;1.48;0.93;;;;;;;17.34;72.74;100671.88;4994044;28;20026;-68
2022/05/26 05:14:33;;;;;;;1.25;0.98;;;;;;;17.43;71.87;100679.47;4993713;28;20109;-68
2022/05/26 05:16:59;;;;;;;0.85;0.75;;;;;;;17.44;72.22;100677.69;5000338;28;20037;-68
2022/05/26 05:19:24;;;;;;;3.80;0.95;;;;;;;17.40;71.48;100668.88;4992146;28;20034;-68
2022/05/26 05:21:56;;;;;;;1.48;0.88;;;;;;;17.62;71.33;100683.03;4993061;28;20040;-68
2022/05/26 05:24:45;;;;;;;1.90;0.98;;;;;;;17.65;70.84;100674.81;4992752;28;20447;-68
2022/05/26 05:27:19;;;;;;;2.90;1.38;;;;;;;17.79;70.68;100683.03;4993732;28;20493;-68
2022/05/26 05:29:48;;;;;;;1.83;0.90;;;;;;;17.88;70.47;100682.56;4993670;28;20378;-68
2022/05/26 05:32:22;;;;;;;1.48;0.90;;;;;;;17.88;70.88;100674.50;4993649;28;20030;-69
2022/05/26 05:35:04;;;;;;;3.53;0.80;;;;;;;17.97;68.77;100686.63;4993414;28;20069;-68
2022/05/26 05:37:33;;;;;;;2.10;0.98;;;;;;;18.06;69.68;100688.81;5012919;28;20421;-68
2022/05/26 05:40:00;;;;;;;2.35;0.70;;;;;;;18.00;69.31;100691.84;5012011;28;20040;-68
2022/05/26 05:42:26;;;;;;;1.42;0.93;;;;;;;18.03;69.44;100697.94;5012486;28;20083;-68
2022/05/26 05:44:51;;;;;;;2.40;0.90;;;;;;;17.98;69.12;100700.00;5012025;28;20044;-68
2022/05/26 05:47:17;;;;;;;3.33;1.13;;;;;;;17.97;69.60;100698.22;5012851;28;20436;-68
2022/05/26 05:49:44;;;;;;;2.65;0.82;;;;;;;17.99;69.36;100706.25;5012107;28;20034;-68
2022/05/26 05:52:13;;;;;;;1.90;1.10;;;;;;;18.04;69.68;100707.75;5012708;28;20030;-68
2022/05/26 05:54:39;;;;;;;2.90;1.00;;;;;;;18.07;69.48;100704.88;5012048;28;20034;-68
2022/05/26 05:57:05;;;;;;;1.48;0.95;;;;;;;18.20;69.27;100713.22;5012489;28;20034;-68
2022/05/26 05:59:31;;;;;;;2.80;1.08;;;;;;;18.48;69.82;100720.72;5011701;28;20034;-68
2022/05/26 06:01:56;;;;;;;3.83;1.10;;;;;;;18.70;67.89;100705.13;4994092;28;20036;-68
2022/05/26 06:04:22;;;;;;;1.25;1.00;;;;;;;19.07;66.03;100718.31;5012436;28;20469;-68
2022/05/26 06:06:48;;;;;;;1.98;1.10;;;;;;;19.34;64.31;100714.09;5012587;28;20497;-69
2022/05/26 06:09:13;;;;;;;2.63;0.90;;;;;;;19.46;62.71;100713.34;5011940;28;20026;-69
2022/05/26 06:11:41;;;;;;;1.70;1.10;;;;;;;19.56;63.10;100719.97;5012046;28;20057;-68
2022/05/26 06:14:06;;;;;;;2.78;1.20;;;;;;;19.62;62.35;100725.88;4994158;28;20034;-68
2022/05/26 06:16:32;;;;;;;3.00;1.02;;;;;;;19.46;63.04;100730.44;5011799;28;20022;-68
2022/05/26 06:18:58;;;;;;;2.30;1.30;;;;;;;19.52;64.84;100740.88;5011846;28;20096;-68
2022/05/26 06:21:24;;;;;;;6.35;1.10;;;;;;;19.47;63.51;100734.84;5011635;28;20018;-68
2022/05/26 06:23:51;;;;;;;1.75;1.00;;;;;;;19.55;63.78;100729.03;4993472;28;20060;-68
2022/05/26 06:26:17;;;;;;;5.70;0.80;;;;;;;19.68;63.38;100724.66;5011821;28;20481;-68
2022/05/26 06:31:27;;;;;;;3.75;1.23;;;;;;;19.74;63.01;100736.91;5012120;28;20044;-68
2022/05/26 06:39:07;;;;;;;1.55;0.82;;;;;;;20.02;61.81;100746.00;4991876;28;20037;-68
2022/05/26 06:44:18;;;;;;;2.72;0.73;;;;;;;20.06;60.63;100755.66;4992381;28;20056;-68
2022/05/26 06:46:44;;;;;;;2.17;0.70;;;;;;;20.16;60.34;100759.59;4992253;28;20026;-67
2022/05/26 06:49:10;;;;;;;2.75;0.85;;;;;;;20.22;60.71;100748.41;4991676;28;20030;-68
2022/05/26 06:51:39;;;;;;;2.45;0.90;;;;;;;20.50;59.85;100758.41;4991990;28;20034;-68
2022/05/26 06:54:05;;;;;;;2.72;0.70;;;;;;;20.46;59.00;100746.91;4991151;28;20385;-68
2022/05/26 06:56:31;;;;;;;2.67;0.80;;;;;;;20.80;58.97;100757.38;4991726;28;20061;-68
2022/05/26 06:58:56;;;;;;;2.50;0.60;;;;;;;20.83;57.25;100761.72;4991479;28;20490;-68
2022/05/26 07:01:22;;;;;;;3.20;0.70;;;;;;;20.89;56.60;100756.78;4990915;28;20037;-68
2022/05/26 07:03:47;;;;;;;1.67;0.70;;;;;;;20.95;57.36;100750.97;4991854;28;20023;-67
2022/05/26 07:06:18;;;;;;;1.90;0.73;;;;;;;21.12;57.18;100765.31;4991589;28;20470;-67
2022/05/26 07:08:48;;;;;;;1.60;0.73;;;;;;;21.30;56.67;100773.09;4991800;28;20417;-67
2022/05/26 07:11:15;;;;;;;1.23;0.57;;;;;;;21.28;55.67;100760.66;4990346;28;20018;-68
2022/05/26 07:13:41;;;;;;;2.10;0.60;;;;;;;21.42;56.66;100766.03;4991793;28;20482;-68
2022/05/26 07:16:07;;;;;;;1.95;0.68;;;;;;;21.39;54.26;100771.66;5007650;28;20029;-68
2022/05/26 07:18:33;;;;;;;1.10;0.60;;;;;;;21.44;54.21;100772.22;5010764;28;20097;-68
2022/05/26 07:21:03;;;;;;;0.65;0.38;;;;;;;21.51;55.43;100770.88;5010674;28;20437;-68
2022/05/26 07:23:29;;;;;;;3.08;0.57;;;;;;;21.51;53.16;100749.19;5010730;28;20540;-68
2022/05/26 07:25:55;;;;;;;2.63;0.60;;;;;;;21.55;54.95;100767.84;5009826;28;20040;-68
2022/05/26 07:28:23;;;;;;;5.25;0.65;;;;;;;21.77;54.67;100770.03;5010486;28;20438;-68
2022/05/26 07:30:49;;;;;;;4.32;0.90;;;;;;;21.89;53.74;100772.78;5010378;28;20169;-68
2022/05/26 07:33:14;;;;;;;2.15;0.90;;;;;;;21.86;52.23;100774.84;5010835;28;20164;-68
2022/05/26 07:35:40;;;;;;;4.13;1.00;;;;;;;21.67;53.72;100779.72;5010224;28;20112;-67
2022/05/26 07:43:41;;;;;;;0.95;0.70;;;;;;;21.74;52.89;100783.75;5010280;28;20060;-68
2022/05/26 07:46:09;;;;;;;2.25;0.55;;;;;;;21.57;53.42;100786.69;5010495;28;20018;-68
2022/05/26 07:48:34;;;;;;;1.60;0.52;;;;;;;21.56;54.33;100784.97;5009842;28;20033;-68
2022/05/26 07:51:00;;;;;;;2.67;0.50;;;;;;;21.61;55.28;100794.53;5009730;28;20042;-68
2022/05/26 07:53:25;;;;;;;2.90;0.68;;;;;;;21.58;55.17;100793.88;5009142;28;20536;-68
2022/05/26 07:55:51;;;;;;;3.40;0.80;;;;;;;21.64;54.69;100793.44;5011112;28;20022;-68
2022/05/26 07:58:17;;;;;;;0.68;0.50;;;;;;;21.62;54.70;100793.56;5010743;28;20041;-68
2022/05/26 08:00:42;;;;;;;3.38;1.13;;;;;;;21.55;54.03;100784.09;5010474;28;20493;-68
2022/05/26 08:03:08;;;;;;;0.98;0.60;;;;;;;21.49;54.04;100792.63;5010448;28;20018;-67
2022/05/26 08:05:34;;;;;;;0.70;0.63;;;;;;;21.52;56.02;100799.66;5008463;28;20101;-67
2022/05/26 08:08:00;;;;;;;3.10;0.60;;;;;;;21.53;55.45;100802.25;5010599;28;20022;-68
2022/05/26 08:10:25;;;;;;;2.03;0.95;;;;;;;21.56;55.84;100803.91;5010543;28;20152;-68
2022/05/26 08:12:50;;;;;;;2.38;0.73;;;;;;;21.47;55.60;100796.38;5011307;28;20025;-68
2022/05/26 08:15:16;;;;;;;1.02;0.52;;;;;;;21.53;55.90;100798.72;5014384;28;20038;-68
2022/05/26 08:17:42;;;;;;;1.30;0.63;;;;;;;21.58;56.47;100810.13;5014364;28;20022;-68
2022/05/26 08:20:08;;;;;;;2.70;0.60;;;;;;;21.46;54.63;100802.78;5012559;28;20412;-68
2022/05/26 08:22:34;;;;;;;1.25;0.50;;;;;;;21.51;55.58;100803.34;5011535;28;20022;-68
2022/05/26 08:24:59;;;;;;;1.52;0.70;;;;;;;21.61;56.38;100815.31;4988375;28;20061;-68
2022/05/26 08:27:26;;;;;;;2.92;0.60;;;;;;;21.54;55.29;100822.09;4992926;28;20385;-68
2022/05/26 08:29:54;;;;;;;0.75;0.50;;;;;;;21.47;55.50;100807.22;4974847;28;20502;-68
2022/05/26 08:32:21;;;;;;;1.58;0.40;;;;;;;21.39;55.31;100820.38;4992735;28;20113;-68
2022/05/26 08:34:46;;;;;;;2.67;0.82;;;;;;;21.24;54.88;100822.22;5002093;28;20025;-68
2022/05/26 08:37:17;;;;;;;1.75;0.50;;;;;;;21.20;57.06;100826.13;5013618;28;20029;-68
2022/05/26 08:39:43;;;;;;;2.03;0.57;;;;;;;21.24;57.35;100822.22;5014323;28;20034;-69
2022/05/26 08:42:21;;;;;;;1.52;0.68;;;;;;;21.08;56.64;100836.81;4996010;28;20040;-69
2022/05/26 08:44:47;;;;;;;4.07;0.65;;;;;;;21.12;57.59;100835.69;5013898;28;20022;-68
2022/05/26 08:47:15;;;;;;;1.70;0.70;;;;;;;21.06;58.36;100834.22;5013230;28;20104;-68
2022/05/26 08:49:46;;;;;;;2.75;0.60;;;;;;;21.26;58.34;100835.66;5013770;28;20022;-68
2022/05/26 08:52:12;;;;;;;0.95;0.60;;;;;;;21.33;59.36;100828.91;5013562;28;20442;-68
2022/05/26 08:54:44;;;;;;;1.23;0.63;;;;;;;21.49;58.50;100837.75;5011641;28;20115;-68
2022/05/26 08:57:14;;;;;;;1.27;0.60;;;;;;;21.72;57.85;100835.31;5012164;28;20325;-68
2022/05/26 08:59:44;;;;;;;1.17;0.70;;;;;;;21.88;56.10;100835.19;4994393;28;20044;-68
2022/05/26 09:02:28;;;;;;;5.60;0.77;;;;;;;22.14;55.58;100839.78;5011571;28;20030;-69
2022/05/26 09:04:59;;;;;;;2.35;0.75;;;;;;;22.16;55.31;100829.69;5012073;28;20022;-69
2022/05/26 09:13:07;;;;;;;4.53;0.82;;;;;;;21.78;56.22;100836.75;5012848;28;20037;-69
2022/05/26 09:15:35;;;;;;;0.88;0.70;;;;;;;21.77;57.61;100845.88;5013395;28;20460;-68
2022/05/26 09:18:16;;;;;;;2.15;1.15;;;;;;;21.70;57.16;100842.66;5012924;28;20389;-68
2022/05/26 09:20:44;;;;;;;2.60;0.73;;;;;;;21.63;57.28;100851.31;5013646;28;20538;-69
2022/05/26 09:23:28;;;;;;;4.65;0.70;;;;;;;21.62;56.11;100854.97;5013429;28;20030;-68
2022/05/26 09:26:06;;;;;;;2.53;1.08;;;;;;;21.59;56.91;100842.50;5011868;28;20076;-67
2022/05/26 09:28:38;;;;;;;3.15;1.02;;;;;;;21.91;57.18;100845.84;4991653;28;20145;-67
2022/05/26 09:31:25;;;;;;;4.72;0.75;;;;;;;22.32;56.79;100849.38;4986168;28;20029;-67
2022/05/26 09:34:14;;;;;;;3.33;0.70;;;;;;;22.61;54.63;100847.41;5012365;28;20026;-67
2022/05/26 09:36:48;;;;;;;1.23;0.80;;;;;;;22.94;56.10;100850.50;5012604;28;20041;-66
2022/05/26 09:39:19;;;;;;;1.00;0.60;;;;;;;23.36;53.50;100848.34;5012750;28;20049;-66
2022/05/26 09:41:52;;;;;;;5.00;0.70;;;;;;;23.74;52.80;100859.13;5012671;28;20091;-68
2022/05/26 09:44:24;;;;;;;;;;;;;;;23.91;49.32;100866.03;5013370;28;20507;-68
2022/05/26 09:46:52;;;;;;;1.70;0.80;;;;;;;23.81;50.68;100859.53;5011947;28;19999;-68
2022/05/26 09:49:23;;;;;;;2.53;0.73;;;;;;;23.56;51.16;100859.63;5011794;28;20504;-68
2022/05/26 09:51:49;;;;;;;0.82;0.63;;;;;;;23.08;51.82;100866.69;5012007;28;20069;-68
2022/05/26 09:54:23;;;;;;;3.15;1.02;;;;;;;22.77;53.61;100875.19;5012541;28;20053;-68
2022/05/26 09:56:49;;;;;;;2.10;0.60;;;;;;;22.17;54.25;100859.38;5012064;28;20026;-68
2022/05/26 09:59:31;;;;;;;1.52;0.60;;;;;;;21.93;55.85;100879.09;5012570;28;20037;-68
2022/05/26 10:02:04;;;;;;;2.42;0.95;;;;;;;21.84;56.59;100871.59;5012217;28;20068;-68
2022/05/26 10:04:51;;;;;;;2.25;0.93;;;;;;;21.74;57.72;100873.13;5011406;28;20041;-68
2022/05/26 10:07:22;;;;;;;3.92;0.70;;;;;;;;;;4992632;28;20396;-68
2022/05/26 10:10:02;;;;;;;2.63;0.70;;;;;;;21.96;56.73;100871.66;5010695;28;20026;-68
2022/05/26 10:13:00;;;;;;;1.95;0.63;;;;;;;22.10;55.25;100854.50;5010818;28;20058;-68
2022/05/26 10:15:58;;;;;;;1.75;1.15;;;;;;;22.63;56.54;100883.44;4960061;28;20061;-68
2022/05/26 10:18:51;;;;;;;3.85;0.98;;;;;;;22.65;56.23;100881.50;5010786;28;20092;-67
2022/05/26 10:22:08;;;;;;;1.48;0.80;;;;;;;22.61;56.68;100880.84;5011199;28;20421;-67
2022/05/26 10:24:54;;;;;;;3.80;0.90;;;;;;;22.10;55.87;100884.31;5000224;28;20046;-67
2022/05/26 10:27:55;;;;;;;3.45;0.90;;;;;;;22.03;58.38;100878.41;4993961;28;20029;-67
2022/05/26 10:30:25;;;;;;;4.30;0.80;;;;;;;22.18;57.00;100882.81;5012082;28;20022;-69
2022/05/26 10:33:11;;;;;;;1.45;0.70;;;;;;;22.33;55.80;100889.06;5011697;28;20061;-68
2022/05/26 10:36:28;;;;;;;3.17;0.80;;;;;;;22.25;55.98;100886.00;4993250;28;20025;-68
2022/05/26 10:39:07;;;;;;;1.92;0.60;;;;;;;22.01;56.72;100887.59;4961175;28;20049;-67
2022/05/26 10:41:47;;;;;;;1.58;0.80;;;;;;;21.85;55.83;100887.75;4989937;28;20029;-67
2022/05/26 10:44:29;;;;;;;1.02;0.60;;;;;;;21.91;56.14;100886.50;4994999;28;20306;-67
2022/05/26 10:47:06;;;;;;;1.58;0.57;;;;;;;21.96;56.82;100889.75;4992825;28;20052;-68
2022/05/26 10:49:58;;;;;;;2.85;0.60;;;;;;;22.08;56.10;100883.53;5009594;28;20117;-68
2022/05/26 10:52:34;;;;;;;3.55;0.95;;;;;;;22.02;55.96;100870.41;5008865;28;20100;-68
2022/05/26 10:55:17;;;;;;;4.53;0.80;;;;;;;22.11;56.72;100875.19;5008644;28;20056;-68
2022/05/26 10:58:05;;;;;;;1.60;0.57;;;;;;;22.08;56.51;100880.81;5005076;28;20359;-68
2022/05/26 11:00:31;;;;;;;3.25;0.70;;;;;;;22.09;56.72;100871.72;4991848;28;20088;-68
2022/05/26 11:03:20;;;;;;;1.90;0.93;;;;;;;22.12;56.81;100874.22;4991579;28;20438;-68
2022/05/26 11:05:51;;;;;;;2.00;0.63;;;;;;;22.00;57.03;100875.03;4991530;28;20493;-68
2022/05/26 11:08:37;;;;;;;3.58;0.90;;;;;;;22.02;57.24;100878.53;5009141;28;20036;-68
2022/05/26 11:11:11;;;;;;;0.60;0.45;;;;;;;22.13;57.32;100878.66;5011363;28;20037;-68
2022/05/26 11:14:06;;;;;;;1.20;0.50;;;;;;;22.55;55.47;100885.81;5009325;28;20036;-68
2022/05/26 11:19:44;;;;;;;3.33;1.08;;;;;;;23.50;52.02;100871.78;5011527;28;20442;-68
2022/05/26 11:22:12;;;;;;;4.13;1.20;;;;;;;23.71;51.08;100869.34;5010715;28;20378;-68
2022/05/26 11:24:39;;;;;;;2.78;0.82;;;;;;;24.21;51.04;100875.53;5010630;28;20080;-68
2022/05/26 11:27:13;;;;;;;2.03;1.30;;;;;;;24.95;49.82;100867.06;5011158;28;20018;-68
2022/05/26 11:29:45;;;;;;;1.45;0.77;;;;;;;25.46;47.91;100868.41;5010726;28;20497;-68
2022/05/26 11:38:19;;;;;;;;;;;;;;;26.91;42.59;100862.50;4994838;28;20097;-67
2022/05/26 11:41:00;;;;;;;2.85;1.13;;;;;;;26.23;44.16;100858.44;4990932;28;19913;-66
2022/05/26 11:43:29;;;;;;;2.55;1.20;;;;;;;25.72;44.33;100863.56;5009892;28;20033;-66
2022/05/26 11:45:56;;;;;;;1.10;0.73;;;;;;;25.30;46.60;100867.00;5010969;28;20035;-66
2022/05/26 11:48:30;;;;;;;1.58;0.60;;;;;;;24.48;48.02;100862.56;5011928;28;20034;-66
2022/05/26 11:51:01;;;;;;;1.05;0.70;;;;;;;24.12;49.47;100862.63;5014718;28;20447;-66
2022/05/26 11:53:30;;;;;;;4.07;0.88;;;;;;;23.67;51.54;100863.28;4997366;28;20104;-67
2022/05/26 11:56:04;;;;;;;2.50;0.80;;;;;;;23.22;52.51;100859.28;5014630;28;20038;-67
2022/05/26 11:58:44;;;;;;;3.03;1.10;;;;;;;23.02;52.86;100862.53;5013790;28;20060;-67
2022/05/26 12:01:19;;;;;;;1.73;0.80;;;;;;;22.73;54.07;100862.84;5015216;28;20057;-68
2022/05/26 12:04:13;;;;;;;1.45;0.80;;;;;;;22.64;54.12;100866.16;5014771;28;20478;-68
2022/05/26 12:06:40;;;;;;;3.47;1.08;;;;;;;22.63;54.26;100862.63;4966001;28;20037;-68
2022/05/26 12:09:20;;;;;;;3.25;1.10;;;;;;;22.69;54.47;100856.75;5014411;28;20037;-68
2022/05/26 12:11:54;;;;;;;4.30;0.98;;;;;;;22.86;53.10;100869.16;5014926;28;20053;-68
2022/05/26 12:14:27;;;;;;;0.93;0.60;;;;;;;22.91;52.77;100867.00;5013882;28;20093;-68
2022/05/26 12:17:31;;;;;;;1.90;0.80;;;;;;;22.65;52.58;100865.22;5013860;28;20034;-68
2022/05/26 12:20:10;;;;;;;7.30;2.28;;;;;;;22.90;54.11;100860.69;5014623;28;20029;-68
2022/05/26 12:22:38;;;;;;;2.97;1.50;;;;;;;23.06;53.73;100861.34;5014130;28;20029;-68
2022/05/26 12:25:22;;;;;;;1.67;0.80;;;;;;;23.32;50.61;100859.53;5014455;28;20054;-69
2022/05/26 12:28:15;;;;;;;5.45;1.13;;;;;;;23.71;51.43;100864.78;5014545;28;20034;-67
2022/05/26 12:30:41;;;;;;;4.13;2.30;;;;;;;24.00;49.95;100859.97;5013994;28;20028;-66